x

Cape Suckling - 35 Nm Se Of Kayak Is, Ak (46082) Wave Buoy

5:50am - Mon 1st Sep 2014 All times are AKDT. -8 hours from GMT.

  • Sig Wave height 3.6ft
  • Peak Period 7s
  • Average Period 5s
  • Wind
    16mph, 18mph gusts
  • Sea Temp 57°f
  • Air Temp 55°f
  • Sea Pressure 1006mb
  • Cape Suckling - 35 Nm Se Of Kayak Is, Ak
  • Cape Suckling - 35 Nm Se Of Kayak Is, Ak

More Historic Weather Station data

Upgrade to MSW Pro to gain access to the past 30 days of data for over 8000 Wavebouys and Weather Stations around the globe.

Join Pro

Comparision Forecast

View Surf forecast
   
Mon 09/01 5:50am 3.5ft 7s 5s 16 18 mph 1006mb 57f 55f
4:50am 3.5ft 13s 5s 16 18 mph 1006.1mb 57f 56f
3:50am 2.5ft 13s 5s 11 13 mph 1006mb 57f 55f
2:50am 2ft 13s 4s 11 13 mph 1006.1mb 57f 55f
1:50am 2.5ft 13s 5s 13
mph
1006.1mb 57f 55f
12:50am 3ft 13s 6s 9 11 mph 1006.2mb 57f 56f
Sun 08/31 11:50pm 3.5ft 13s 6s 9 11 mph 1005.9mb 57f 56f
10:50pm 3.5ft 13s 6s 7
mph
1005.8mb 57f 56f
9:50pm 3ft 14s 5s 4
mph
1005.6mb 57f 55f
8:50pm 3.5ft 14s 6s 2
mph
1005.4mb 57f 55f
7:50pm 3.5ft 13s 5s 2
mph
1005.3mb 57f 56f
6:50pm 3.5ft 14s 5s  -  2 mph 1005.2mb 57f 56f
5:50pm 3.5ft 14s 5s 4
mph
1005.1mb 57f 56f
4:50pm 3.5ft 14s 5s 2 4 mph 1004.9mb 57f 56f
3:50pm 3.5ft 14s 5s 7 9 mph 1004.9mb 57f 56f
2:50pm 3.5ft 13s 5s 7 9 mph 1005.1mb 57f 56f
1:50pm 3.5ft 13s 5s 9 11 mph 1005.1mb 57f 56f
12:50pm 3.5ft 5s 4s 11 13 mph 1005.1mb 57f 55f
11:50am 4ft 12s 5s 13 16 mph 1004.8mb 56f 55f
10:50am 4ft 5s 4s 13 16 mph 1004.6mb 56f 55f
9:50am 4ft 5s 4s 13 16 mph 1004.1mb 56f 55f
8:50am 4ft 5s 4s 13 16 mph 1003.9mb 56f 56f
7:50am 4.5ft 5s 5s 16 18 mph 1003.7mb 56f 55f
6:50am 4.5ft 14s 5s 11 13 mph 1003.5mb 56f 56f
5:50am 3.5ft 14s 4s 13 16 mph 1003.4mb 56f 56f
4:50am 3.5ft 4s 4s 16 18 mph 1003.3mb 56f 56f
3:50am 4.5ft 14s 5s 11 13 mph 1003.4mb 56f 56f
2:50am 3.5ft 7s 5s 7 9 mph 1003.3mb 56f 56f
1:50am 4.5ft 7s 5s 7
mph
1003.2mb 56f 55f
12:50am 4.5ft 14s 5s 4 7 mph 1003mb 56f 55f
Sat 08/30 11:50pm 3.5ft 7s 5s 2
mph
1003mb 56f 55f
10:50pm 4.5ft 14s 5s  -  2 mph 1002.8mb 56f 55f
9:50pm 4ft 7s 5s 4
mph
1002.5mb 56f 55f
8:50pm 4ft 8s 5s 4 7 mph 1002.1mb 56f 55f
7:50pm 4.5ft 6s 5s 9 11 mph 1001.8mb 56f 56f
6:50pm 4.5ft 14s 5s 11 13 mph 1001.6mb 56f 56f
5:50pm 5ft 15s 5s 11 13 mph 1001.4mb 57f 56f
4:50pm 5ft 7s 5s 13 16 mph 1001.3mb 57f 56f
3:50pm 5ft 7s 5s 18 20 mph 1001.2mb 57f 55f
2:50pm 5.5ft 15s 5s 13 16 mph 1001.2mb 56f 56f
1:50pm 5ft 7s 5s 13 16 mph 1001mb 56f 56f
12:50pm 4.5ft 8s 5s 13 16 mph 1000.7mb 56f 55f
11:50am 5ft 6s 5s 11 13 mph 1000.4mb 56f 55f
10:50am 5ft 7s 6s 9 11 mph 1000.2mb 57f 56f
9:50am 5ft 7s 5s 9 11 mph 1000.1mb 57f 56f
8:50am 5ft 8s 6s 7
mph
999.9mb 57f 56f
7:50am 5ft 8s 6s 11 13 mph 999.6mb 57f 56f
6:50am 5ft 8s 6s 11
mph
999.6mb 57f 56f
5:50am 5ft 8s 6s 9 13 mph 999.8mb 57f 56f
4:50am 5ft 15s 6s 9 11 mph 999.8mb 57f 56f
3:50am 4.5ft 7s 5s 7
mph
999.8mb 57f 56f
2:50am 5ft 7s 6s 7 9 mph 999.9mb 57f 56f
1:50am 5ft 7s 6s 9
mph
1000mb 57f 56f
12:50am 5.5ft 7s 6s 9 11 mph 999.9mb 57f 56f
Fri 08/29 11:50pm 5ft 8s 6s 9 11 mph 1000mb 57f 56f
10:50pm 6ft 8s 6s 9 11 mph 1000mb 57f 56f
9:50pm 6ft 8s 6s 11 13 mph 999.9mb 57f 56f
8:50pm 6ft 8s 5s 18 20 mph 999.7mb 57f 56f
7:50pm 6.5ft 8s 6s 16 20 mph 999.5mb 57f 56f
6:50pm 7ft 8s 6s 16 18 mph 999.4mb 57f 56f
5:50pm 7.5ft 8s 6s 13 16 mph 999.7mb 57f 56f
4:50pm 7ft 7s 5s 18 22 mph 999.5mb 57f 56f
3:50pm 7.5ft 8s 5s 20 22 mph 999.4mb 57f 56f
2:50pm 7ft 8s 5s 20 25 mph 999.5mb 57f 56f
1:50pm 7.5ft 9s 6s 22 27 mph 999.3mb 57f 56f
12:50pm 8ft 7s 6s 20 25 mph 999.5mb 57f 56f
11:50am 8.5ft 9s 6s 18 22 mph 999.6mb 57f 55f
10:50am 9ft 8s 6s 20 25 mph 999.9mb 57f 55f
9:50am 10ft 8s 6s 22 27 mph 999.9mb 57f 56f
8:50am 9.5ft 7s 6s 20 25 mph 1000.1mb 57f 56f
7:50am 11ft 8s 6s 22 27 mph 1000.2mb 57f 56f
6:50am 11ft 7s 6s 25 31 mph 1000.3mb 57f 55f
5:50am 10ft 7s 6s 25 31 mph 1000.5mb 57f 56f
4:50am 10ft 8s 6s 27 34 mph 1000.8mb 58f 55f
3:50am 11ft 7s 6s 29 36 mph 1001.3mb 58f 54f
2:50am 10ft 7s 6s 29 34 mph 1001.7mb 58f 54f
1:50am 11.5ft 8s 6s 29 34 mph 1002.4mb 58f 54f
12:50am 11ft 8s 6s 29 36 mph 1002.9mb 58f 54f
Thu 08/28 11:50pm 11.5ft 7s 6s 31 36 mph 1003.4mb 58f 54f
10:50pm 12ft 7s 6s 31 38 mph 1003.8mb 58f 55f
9:50pm 12ft 7s 6s 31 36 mph 1004.1mb 58f 55f
8:50pm 9.5ft 7s 6s 31 38 mph 1004.3mb 58f 55f
7:50pm 10ft 6s 6s 29 38 mph 1004.9mb 58f 55f
6:50pm 10ft 7s 6s 27 34 mph 1005.2mb 58f 56f
5:50pm 10ft 7s 6s 27 36 mph 1005.4mb 58f 56f
4:50pm 9ft 6s 5s 27 31 mph 1005.6mb 58f 56f
3:50pm 9ft 6s 5s 25 29 mph 1006.1mb 58f 55f